sensor_id;sensor_type;location;lat;lon;timestamp;P1;durP1;ratioP1;P2;durP2;ratioP2
46318;SDS011;32042;50.916;2.926;2023-04-22T00:02:14;15.50;;;13.93;;
46318;SDS011;32042;50.916;2.926;2023-04-22T00:04:41;12.40;;;11.23;;
46318;SDS011;32042;50.916;2.926;2023-04-22T00:07:10;12.67;;;11.47;;
46318;SDS011;32042;50.916;2.926;2023-04-22T00:09:36;12.30;;;11.20;;
46318;SDS011;32042;50.916;2.926;2023-04-22T00:12:02;14.33;;;12.13;;
46318;SDS011;32042;50.916;2.926;2023-04-22T00:14:29;14.00;;;12.80;;
46318;SDS011;32042;50.916;2.926;2023-04-22T00:16:55;15.10;;;13.67;;
46318;SDS011;32042;50.916;2.926;2023-04-22T00:19:21;14.83;;;13.27;;
46318;SDS011;32042;50.916;2.926;2023-04-22T00:21:48;12.93;;;11.73;;
46318;SDS011;32042;50.916;2.926;2023-04-22T00:24:14;13.23;;;11.80;;
46318;SDS011;32042;50.916;2.926;2023-04-22T00:26:40;12.97;;;11.87;;
46318;SDS011;32042;50.916;2.926;2023-04-22T00:29:06;13.07;;;11.90;;
46318;SDS011;32042;50.916;2.926;2023-04-22T00:31:32;13.43;;;12.13;;
46318;SDS011;32042;50.916;2.926;2023-04-22T00:33:59;14.10;;;12.70;;
46318;SDS011;32042;50.916;2.926;2023-04-22T00:36:26;11.90;;;10.80;;
46318;SDS011;32042;50.916;2.926;2023-04-22T00:38:52;12.37;;;11.23;;
46318;SDS011;32042;50.916;2.926;2023-04-22T00:41:18;14.87;;;13.30;;
46318;SDS011;32042;50.916;2.926;2023-04-22T00:43:44;13.07;;;11.87;;
46318;SDS011;32042;50.916;2.926;2023-04-22T00:46:10;12.37;;;11.17;;
46318;SDS011;32042;50.916;2.926;2023-04-22T00:48:37;11.20;;;10.10;;
46318;SDS011;32042;50.916;2.926;2023-04-22T00:51:03;12.13;;;11.03;;
46318;SDS011;32042;50.916;2.926;2023-04-22T00:53:30;11.83;;;10.53;;
46318;SDS011;32042;50.916;2.926;2023-04-22T00:55:56;12.40;;;11.20;;
46318;SDS011;32042;50.916;2.926;2023-04-22T00:58:22;11.20;;;10.13;;
46318;SDS011;32042;50.916;2.926;2023-04-22T01:00:50;10.93;;;10.00;;
46318;SDS011;32042;50.916;2.926;2023-04-22T01:03:16;11.10;;;10.20;;
46318;SDS011;32042;50.916;2.926;2023-04-22T01:05:44;11.07;;;10.07;;
46318;SDS011;32042;50.916;2.926;2023-04-22T01:08:11;10.57;;;9.67;;
46318;SDS011;32042;50.916;2.926;2023-04-22T01:10:37;11.30;;;10.40;;
46318;SDS011;32042;50.916;2.926;2023-04-22T01:13:03;10.53;;;9.63;;
46318;SDS011;32042;50.916;2.926;2023-04-22T01:15:29;11.63;;;10.50;;
46318;SDS011;32042;50.916;2.926;2023-04-22T01:17:55;10.73;;;9.83;;
46318;SDS011;32042;50.916;2.926;2023-04-22T01:20:22;12.13;;;11.10;;
46318;SDS011;32042;50.916;2.926;2023-04-22T01:22:48;11.07;;;10.07;;
46318;SDS011;32042;50.916;2.926;2023-04-22T01:25:15;13.83;;;11.00;;
46318;SDS011;32042;50.916;2.926;2023-04-22T01:27:41;11.87;;;10.83;;
46318;SDS011;32042;50.916;2.926;2023-04-22T01:30:08;11.93;;;10.93;;
46318;SDS011;32042;50.916;2.926;2023-04-22T01:32:35;12.17;;;11.07;;
46318;SDS011;32042;50.916;2.926;2023-04-22T01:35:01;11.87;;;10.87;;
46318;SDS011;32042;50.916;2.926;2023-04-22T01:37:28;11.83;;;10.80;;
46318;SDS011;32042;50.916;2.926;2023-04-22T01:39:55;14.27;;;12.87;;
46318;SDS011;32042;50.916;2.926;2023-04-22T01:42:21;13.67;;;12.33;;
46318;SDS011;32042;50.916;2.926;2023-04-22T01:44:48;14.47;;;13.10;;
46318;SDS011;32042;50.916;2.926;2023-04-22T01:47:14;14.40;;;13.00;;
46318;SDS011;32042;50.916;2.926;2023-04-22T01:49:40;15.23;;;13.67;;
46318;SDS011;32042;50.916;2.926;2023-04-22T01:52:06;15.93;;;14.23;;
46318;SDS011;32042;50.916;2.926;2023-04-22T01:54:32;15.00;;;13.50;;
46318;SDS011;32042;50.916;2.926;2023-04-22T01:56:58;15.10;;;13.57;;
46318;SDS011;32042;50.916;2.926;2023-04-22T01:59:26;15.00;;;13.50;;
46318;SDS011;32042;50.916;2.926;2023-04-22T02:01:52;13.30;;;12.07;;
46318;SDS011;32042;50.916;2.926;2023-04-22T02:04:18;14.57;;;13.10;;
46318;SDS011;32042;50.916;2.926;2023-04-22T02:06:44;17.17;;;15.37;;
46318;SDS011;32042;50.916;2.926;2023-04-22T02:09:10;18.30;;;16.33;;
46318;SDS011;32042;50.916;2.926;2023-04-22T02:11:36;16.37;;;14.60;;
46318;SDS011;32042;50.916;2.926;2023-04-22T02:14:02;15.43;;;13.93;;
46318;SDS011;32042;50.916;2.926;2023-04-22T02:16:28;21.17;;;14.60;;
46318;SDS011;32042;50.916;2.926;2023-04-22T02:18:54;18.63;;;15.40;;
46318;SDS011;32042;50.916;2.926;2023-04-22T02:21:20;21.53;;;14.93;;
46318;SDS011;32042;50.916;2.926;2023-04-22T02:23:46;15.87;;;14.23;;
46318;SDS011;32042;50.916;2.926;2023-04-22T02:26:13;17.57;;;14.97;;
46318;SDS011;32042;50.916;2.926;2023-04-22T02:28:39;19.93;;;14.80;;
46318;SDS011;32042;50.916;2.926;2023-04-22T02:31:05;17.07;;;15.27;;
46318;SDS011;32042;50.916;2.926;2023-04-22T02:33:32;15.53;;;13.97;;
46318;SDS011;32042;50.916;2.926;2023-04-22T02:36:00;18.13;;;15.50;;
46318;SDS011;32042;50.916;2.926;2023-04-22T02:38:27;17.20;;;15.37;;
46318;SDS011;32042;50.916;2.926;2023-04-22T02:40:54;18.90;;;15.80;;
46318;SDS011;32042;50.916;2.926;2023-04-22T02:43:20;21.97;;;16.00;;
46318;SDS011;32042;50.916;2.926;2023-04-22T02:45:47;19.90;;;17.00;;
46318;SDS011;32042;50.916;2.926;2023-04-22T02:48:14;21.93;;;17.37;;
46318;SDS011;32042;50.916;2.926;2023-04-22T02:50:41;21.40;;;17.90;;
46318;SDS011;32042;50.916;2.926;2023-04-22T02:53:07;27.27;;;17.53;;
46318;SDS011;32042;50.916;2.926;2023-04-22T02:55:34;20.47;;;18.17;;
46318;SDS011;32042;50.916;2.926;2023-04-22T02:58:00;23.40;;;18.90;;
46318;SDS011;32042;50.916;2.926;2023-04-22T03:00:26;23.57;;;19.77;;
46318;SDS011;32042;50.916;2.926;2023-04-22T03:02:52;22.37;;;18.50;;
46318;SDS011;32042;50.916;2.926;2023-04-22T03:05:18;25.67;;;20.53;;
46318;SDS011;32042;50.916;2.926;2023-04-22T03:07:44;18.67;;;16.73;;
46318;SDS011;32042;50.916;2.926;2023-04-22T03:10:11;22.47;;;17.10;;
46318;SDS011;32042;50.916;2.926;2023-04-22T03:12:37;20.70;;;17.73;;
46318;SDS011;32042;50.916;2.926;2023-04-22T03:15:03;20.60;;;17.27;;
46318;SDS011;32042;50.916;2.926;2023-04-22T03:17:30;21.23;;;17.20;;
46318;SDS011;32042;50.916;2.926;2023-04-22T03:19:56;24.47;;;20.40;;
46318;SDS011;32042;50.916;2.926;2023-04-22T03:22:22;27.47;;;20.67;;
46318;SDS011;32042;50.916;2.926;2023-04-22T03:24:48;22.80;;;17.83;;
46318;SDS011;32042;50.916;2.926;2023-04-22T03:27:14;24.53;;;20.83;;
46318;SDS011;32042;50.916;2.926;2023-04-22T03:29:40;26.63;;;21.83;;
46318;SDS011;32042;50.916;2.926;2023-04-22T03:32:06;30.77;;;21.43;;
46318;SDS011;32042;50.916;2.926;2023-04-22T03:34:32;27.70;;;21.67;;
46318;SDS011;32042;50.916;2.926;2023-04-22T03:36:58;27.50;;;22.53;;
46318;SDS011;32042;50.916;2.926;2023-04-22T03:39:24;32.20;;;24.07;;
46318;SDS011;32042;50.916;2.926;2023-04-22T03:41:50;31.50;;;23.83;;
46318;SDS011;32042;50.916;2.926;2023-04-22T03:44:16;31.60;;;24.83;;
46318;SDS011;32042;50.916;2.926;2023-04-22T03:46:42;27.70;;;21.80;;
46318;SDS011;32042;50.916;2.926;2023-04-22T03:49:09;28.03;;;22.07;;
46318;SDS011;32042;50.916;2.926;2023-04-22T03:51:35;33.13;;;24.20;;
46318;SDS011;32042;50.916;2.926;2023-04-22T03:54:01;31.70;;;23.73;;
46318;SDS011;32042;50.916;2.926;2023-04-22T03:56:27;32.73;;;25.23;;
46318;SDS011;32042;50.916;2.926;2023-04-22T03:58:53;32.53;;;24.13;;
46318;SDS011;32042;50.916;2.926;2023-04-22T04:01:19;28.07;;;23.73;;
46318;SDS011;32042;50.916;2.926;2023-04-22T04:03:45;33.90;;;25.17;;
46318;SDS011;32042;50.916;2.926;2023-04-22T04:06:11;30.93;;;24.37;;
46318;SDS011;32042;50.916;2.926;2023-04-22T04:08:37;35.97;;;23.87;;
46318;SDS011;32042;50.916;2.926;2023-04-22T04:11:03;33.87;;;24.40;;
46318;SDS011;32042;50.916;2.926;2023-04-22T04:13:30;29.53;;;23.03;;
46318;SDS011;32042;50.916;2.926;2023-04-22T04:15:57;28.53;;;22.17;;
46318;SDS011;32042;50.916;2.926;2023-04-22T04:18:24;31.87;;;24.40;;
46318;SDS011;32042;50.916;2.926;2023-04-22T04:20:51;36.20;;;25.57;;
46318;SDS011;32042;50.916;2.926;2023-04-22T04:23:17;43.13;;;27.47;;
46318;SDS011;32042;50.916;2.926;2023-04-22T04:25:43;37.23;;;28.47;;
46318;SDS011;32042;50.916;2.926;2023-04-22T04:28:09;38.97;;;28.20;;
46318;SDS011;32042;50.916;2.926;2023-04-22T04:30:36;40.97;;;28.33;;
46318;SDS011;32042;50.916;2.926;2023-04-22T04:33:02;36.77;;;27.23;;
46318;SDS011;32042;50.916;2.926;2023-04-22T04:35:35;40.97;;;29.40;;
46318;SDS011;32042;50.916;2.926;2023-04-22T04:38:02;41.80;;;29.40;;
46318;SDS011;32042;50.916;2.926;2023-04-22T04:40:29;38.73;;;29.17;;
46318;SDS011;32042;50.916;2.926;2023-04-22T04:42:55;41.43;;;29.33;;
46318;SDS011;32042;50.916;2.926;2023-04-22T04:45:22;41.30;;;29.30;;
46318;SDS011;32042;50.916;2.926;2023-04-22T04:47:48;44.83;;;30.90;;
46318;SDS011;32042;50.916;2.926;2023-04-22T04:50:18;46.97;;;30.00;;
46318;SDS011;32042;50.916;2.926;2023-04-22T04:52:48;44.00;;;31.27;;
46318;SDS011;32042;50.916;2.926;2023-04-22T04:55:14;41.27;;;30.10;;
46318;SDS011;32042;50.916;2.926;2023-04-22T04:57:42;43.10;;;30.23;;
46318;SDS011;32042;50.916;2.926;2023-04-22T05:00:08;37.27;;;27.90;;
46318;SDS011;32042;50.916;2.926;2023-04-22T05:02:34;38.73;;;29.27;;
46318;SDS011;32042;50.916;2.926;2023-04-22T05:05:00;39.17;;;29.40;;
46318;SDS011;32042;50.916;2.926;2023-04-22T05:07:26;40.87;;;30.40;;
46318;SDS011;32042;50.916;2.926;2023-04-22T05:09:53;38.60;;;28.60;;
46318;SDS011;32042;50.916;2.926;2023-04-22T05:12:19;36.37;;;27.83;;
46318;SDS011;32042;50.916;2.926;2023-04-22T05:14:45;36.00;;;28.47;;
46318;SDS011;32042;50.916;2.926;2023-04-22T05:17:11;37.73;;;29.17;;
46318;SDS011;32042;50.916;2.926;2023-04-22T05:19:38;37.30;;;28.17;;
46318;SDS011;32042;50.916;2.926;2023-04-22T05:22:05;36.87;;;28.60;;
46318;SDS011;32042;50.916;2.926;2023-04-22T05:24:31;36.50;;;27.97;;
46318;SDS011;32042;50.916;2.926;2023-04-22T05:26:57;35.33;;;27.70;;
46318;SDS011;32042;50.916;2.926;2023-04-22T05:29:24;39.40;;;28.87;;
46318;SDS011;32042;50.916;2.926;2023-04-22T05:31:50;38.77;;;29.37;;
46318;SDS011;32042;50.916;2.926;2023-04-22T05:34:16;40.17;;;29.70;;
46318;SDS011;32042;50.916;2.926;2023-04-22T05:36:42;42.20;;;30.43;;
46318;SDS011;32042;50.916;2.926;2023-04-22T05:39:08;40.63;;;30.30;;
46318;SDS011;32042;50.916;2.926;2023-04-22T05:41:34;40.17;;;29.13;;
46318;SDS011;32042;50.916;2.926;2023-04-22T05:44:00;45.77;;;31.63;;
46318;SDS011;32042;50.916;2.926;2023-04-22T05:46:26;49.77;;;33.17;;
46318;SDS011;32042;50.916;2.926;2023-04-22T05:48:53;47.03;;;33.10;;
46318;SDS011;32042;50.916;2.926;2023-04-22T05:51:20;46.87;;;31.93;;
46318;SDS011;32042;50.916;2.926;2023-04-22T05:53:47;45.10;;;31.70;;
46318;SDS011;32042;50.916;2.926;2023-04-22T05:56:13;44.57;;;32.03;;
46318;SDS011;32042;50.916;2.926;2023-04-22T05:58:39;47.30;;;33.17;;
46318;SDS011;32042;50.916;2.926;2023-04-22T06:01:06;47.30;;;33.37;;
46318;SDS011;32042;50.916;2.926;2023-04-22T06:03:32;48.23;;;32.23;;
46318;SDS011;32042;50.916;2.926;2023-04-22T06:05:58;51.53;;;34.63;;
46318;SDS011;32042;50.916;2.926;2023-04-22T06:08:24;46.27;;;34.30;;
46318;SDS011;32042;50.916;2.926;2023-04-22T06:10:50;47.77;;;32.93;;
46318;SDS011;32042;50.916;2.926;2023-04-22T06:13:16;45.20;;;31.63;;
46318;SDS011;32042;50.916;2.926;2023-04-22T06:15:42;53.40;;;34.63;;
46318;SDS011;32042;50.916;2.926;2023-04-22T06:18:08;50.73;;;35.53;;
46318;SDS011;32042;50.916;2.926;2023-04-22T06:20:35;48.87;;;35.87;;
46318;SDS011;32042;50.916;2.926;2023-04-22T06:23:01;51.03;;;35.17;;
46318;SDS011;32042;50.916;2.926;2023-04-22T06:25:29;51.93;;;34.83;;
46318;SDS011;32042;50.916;2.926;2023-04-22T06:27:55;52.67;;;35.33;;
46318;SDS011;32042;50.916;2.926;2023-04-22T06:30:21;48.30;;;34.23;;
46318;SDS011;32042;50.916;2.926;2023-04-22T06:32:47;53.23;;;35.00;;
46318;SDS011;32042;50.916;2.926;2023-04-22T06:35:13;53.63;;;35.17;;
46318;SDS011;32042;50.916;2.926;2023-04-22T06:37:39;52.40;;;36.17;;
46318;SDS011;32042;50.916;2.926;2023-04-22T06:40:05;55.67;;;36.50;;
46318;SDS011;32042;50.916;2.926;2023-04-22T06:42:32;55.80;;;37.07;;
46318;SDS011;32042;50.916;2.926;2023-04-22T06:44:58;49.33;;;34.00;;
46318;SDS011;32042;50.916;2.926;2023-04-22T06:47:24;49.10;;;34.93;;
46318;SDS011;32042;50.916;2.926;2023-04-22T06:49:50;55.13;;;36.43;;
46318;SDS011;32042;50.916;2.926;2023-04-22T06:52:16;49.07;;;34.47;;
46318;SDS011;32042;50.916;2.926;2023-04-22T06:54:42;51.33;;;34.90;;
46318;SDS011;32042;50.916;2.926;2023-04-22T06:57:08;49.00;;;33.53;;
46318;SDS011;32042;50.916;2.926;2023-04-22T06:59:34;50.63;;;34.60;;
46318;SDS011;32042;50.916;2.926;2023-04-22T07:02:00;48.40;;;34.70;;
46318;SDS011;32042;50.916;2.926;2023-04-22T07:04:26;52.77;;;37.27;;
46318;SDS011;32042;50.916;2.926;2023-04-22T07:06:53;52.50;;;35.70;;
46318;SDS011;32042;50.916;2.926;2023-04-22T07:09:19;52.80;;;35.87;;
46318;SDS011;32042;50.916;2.926;2023-04-22T07:11:45;51.27;;;34.23;;
46318;SDS011;32042;50.916;2.926;2023-04-22T07:14:11;44.93;;;33.40;;
46318;SDS011;32042;50.916;2.926;2023-04-22T07:16:37;52.83;;;35.30;;
46318;SDS011;32042;50.916;2.926;2023-04-22T07:19:03;49.53;;;35.63;;
46318;SDS011;32042;50.916;2.926;2023-04-22T07:21:31;42.40;;;33.07;;
46318;SDS011;32042;50.916;2.926;2023-04-22T07:23:57;48.20;;;33.47;;
46318;SDS011;32042;50.916;2.926;2023-04-22T07:26:23;45.53;;;33.57;;
46318;SDS011;32042;50.916;2.926;2023-04-22T07:28:50;47.90;;;33.43;;
46318;SDS011;32042;50.916;2.926;2023-04-22T07:31:16;41.83;;;31.67;;
46318;SDS011;32042;50.916;2.926;2023-04-22T07:33:42;44.10;;;31.80;;
46318;SDS011;32042;50.916;2.926;2023-04-22T07:36:08;41.83;;;31.50;;
46318;SDS011;32042;50.916;2.926;2023-04-22T07:38:34;39.40;;;30.50;;
46318;SDS011;32042;50.916;2.926;2023-04-22T07:41:00;41.90;;;31.83;;
46318;SDS011;32042;50.916;2.926;2023-04-22T07:43:26;40.57;;;31.43;;
46318;SDS011;32042;50.916;2.926;2023-04-22T07:45:53;39.73;;;29.37;;
46318;SDS011;32042;50.916;2.926;2023-04-22T07:48:19;39.17;;;29.67;;
46318;SDS011;32042;50.916;2.926;2023-04-22T07:50:45;39.20;;;30.77;;
46318;SDS011;32042;50.916;2.926;2023-04-22T07:53:11;43.17;;;29.97;;
46318;SDS011;32042;50.916;2.926;2023-04-22T07:55:39;42.87;;;31.20;;
46318;SDS011;32042;50.916;2.926;2023-04-22T07:58:05;41.53;;;30.27;;
46318;SDS011;32042;50.916;2.926;2023-04-22T08:00:34;41.60;;;30.43;;
46318;SDS011;32042;50.916;2.926;2023-04-22T08:03:01;37.97;;;31.43;;
46318;SDS011;32042;50.916;2.926;2023-04-22T08:05:27;42.20;;;29.77;;
46318;SDS011;32042;50.916;2.926;2023-04-22T08:07:53;41.33;;;30.87;;
46318;SDS011;32042;50.916;2.926;2023-04-22T08:10:20;41.03;;;28.87;;
46318;SDS011;32042;50.916;2.926;2023-04-22T08:12:46;35.57;;;28.47;;
46318;SDS011;32042;50.916;2.926;2023-04-22T08:15:12;38.57;;;29.43;;
46318;SDS011;32042;50.916;2.926;2023-04-22T08:17:38;37.70;;;28.90;;
46318;SDS011;32042;50.916;2.926;2023-04-22T08:20:04;37.73;;;30.03;;
46318;SDS011;32042;50.916;2.926;2023-04-22T08:22:31;38.37;;;29.40;;
46318;SDS011;32042;50.916;2.926;2023-04-22T08:24:58;36.23;;;27.53;;
46318;SDS011;32042;50.916;2.926;2023-04-22T08:27:24;38.30;;;29.37;;
46318;SDS011;32042;50.916;2.926;2023-04-22T08:29:50;37.27;;;29.83;;
46318;SDS011;32042;50.916;2.926;2023-04-22T08:32:16;39.93;;;31.97;;
46318;SDS011;32042;50.916;2.926;2023-04-22T08:34:44;41.43;;;32.33;;
46318;SDS011;32042;50.916;2.926;2023-04-22T08:37:10;44.43;;;32.30;;
46318;SDS011;32042;50.916;2.926;2023-04-22T08:39:36;41.07;;;32.43;;
46318;SDS011;32042;50.916;2.926;2023-04-22T08:42:02;43.10;;;32.87;;
46318;SDS011;32042;50.916;2.926;2023-04-22T08:44:28;37.57;;;31.30;;
46318;SDS011;32042;50.916;2.926;2023-04-22T08:46:54;44.37;;;33.03;;
46318;SDS011;32042;50.916;2.926;2023-04-22T08:49:21;44.97;;;33.77;;
46318;SDS011;32042;50.916;2.926;2023-04-22T08:51:48;41.67;;;32.17;;
46318;SDS011;32042;50.916;2.926;2023-04-22T08:54:15;43.53;;;33.47;;
46318;SDS011;32042;50.916;2.926;2023-04-22T08:56:42;43.53;;;31.97;;
46318;SDS011;32042;50.916;2.926;2023-04-22T08:59:09;44.33;;;33.63;;
46318;SDS011;32042;50.916;2.926;2023-04-22T09:01:35;40.80;;;30.57;;
46318;SDS011;32042;50.916;2.926;2023-04-22T09:04:03;39.13;;;31.87;;
46318;SDS011;32042;50.916;2.926;2023-04-22T09:06:30;37.27;;;31.37;;
46318;SDS011;32042;50.916;2.926;2023-04-22T09:08:57;42.97;;;34.33;;
46318;SDS011;32042;50.916;2.926;2023-04-22T09:11:25;39.77;;;32.87;;
46318;SDS011;32042;50.916;2.926;2023-04-22T09:13:53;39.13;;;29.97;;
46318;SDS011;32042;50.916;2.926;2023-04-22T09:16:19;40.30;;;30.50;;
46318;SDS011;32042;50.916;2.926;2023-04-22T09:18:45;39.77;;;30.13;;
46318;SDS011;32042;50.916;2.926;2023-04-22T09:21:11;46.37;;;33.10;;
46318;SDS011;32042;50.916;2.926;2023-04-22T09:23:50;45.63;;;33.43;;
46318;SDS011;32042;50.916;2.926;2023-04-22T09:26:23;39.13;;;29.20;;
46318;SDS011;32042;50.916;2.926;2023-04-22T09:28:54;49.83;;;35.27;;
46318;SDS011;32042;50.916;2.926;2023-04-22T09:31:22;43.80;;;32.90;;
46318;SDS011;32042;50.916;2.926;2023-04-22T09:33:55;44.63;;;34.13;;
46318;SDS011;32042;50.916;2.926;2023-04-22T09:36:25;49.43;;;33.17;;
46318;SDS011;32042;50.916;2.926;2023-04-22T09:38:53;43.40;;;32.90;;
46318;SDS011;32042;50.916;2.926;2023-04-22T09:41:28;44.73;;;33.90;;
46318;SDS011;32042;50.916;2.926;2023-04-22T09:43:55;49.03;;;35.63;;
46318;SDS011;32042;50.916;2.926;2023-04-22T09:46:22;48.73;;;36.17;;
46318;SDS011;32042;50.916;2.926;2023-04-22T09:48:49;50.80;;;37.37;;
46318;SDS011;32042;50.916;2.926;2023-04-22T09:51:15;50.83;;;35.03;;
46318;SDS011;32042;50.916;2.926;2023-04-22T09:53:42;44.80;;;34.97;;
46318;SDS011;32042;50.916;2.926;2023-04-22T09:56:09;43.33;;;35.67;;
46318;SDS011;32042;50.916;2.926;2023-04-22T09:58:38;41.07;;;32.63;;
46318;SDS011;32042;50.916;2.926;2023-04-22T10:01:04;40.77;;;31.10;;
46318;SDS011;32042;50.916;2.926;2023-04-22T10:03:31;42.70;;;33.93;;
46318;SDS011;32042;50.916;2.926;2023-04-22T10:05:57;37.73;;;31.00;;
46318;SDS011;32042;50.916;2.926;2023-04-22T10:08:23;36.37;;;29.93;;
46318;SDS011;32042;50.916;2.926;2023-04-22T10:10:49;37.87;;;32.43;;
46318;SDS011;32042;50.916;2.926;2023-04-22T10:13:15;38.47;;;30.00;;
46318;SDS011;32042;50.916;2.926;2023-04-22T10:15:43;35.37;;;29.40;;
46318;SDS011;32042;50.916;2.926;2023-04-22T10:18:11;32.63;;;27.33;;
46318;SDS011;32042;50.916;2.926;2023-04-22T10:20:39;30.73;;;26.80;;
46318;SDS011;32042;50.916;2.926;2023-04-22T10:23:06;28.67;;;25.03;;
46318;SDS011;32042;50.916;2.926;2023-04-22T10:25:36;27.87;;;23.63;;
46318;SDS011;32042;50.916;2.926;2023-04-22T10:28:06;30.73;;;25.43;;
46318;SDS011;32042;50.916;2.926;2023-04-22T10:30:36;32.23;;;25.57;;
46318;SDS011;32042;50.916;2.926;2023-04-22T10:41:27;27.37;;;24.33;;
46318;SDS011;32042;50.916;2.926;2023-04-22T10:43:57;28.83;;;25.83;;
46318;SDS011;32042;50.916;2.926;2023-04-22T10:51:40;29.23;;;26.13;;
46318;SDS011;32042;50.916;2.926;2023-04-22T10:54:07;29.07;;;25.93;;
46318;SDS011;32042;50.916;2.926;2023-04-22T10:56:33;30.97;;;25.87;;
46318;SDS011;32042;50.916;2.926;2023-04-22T10:59:00;31.27;;;25.27;;
46318;SDS011;32042;50.916;2.926;2023-04-22T11:01:40;31.13;;;26.77;;
46318;SDS011;32042;50.916;2.926;2023-04-22T11:04:18;32.37;;;26.40;;
46318;SDS011;32042;50.916;2.926;2023-04-22T11:07:11;34.20;;;24.70;;
46318;SDS011;32042;50.916;2.926;2023-04-22T11:09:32;29.30;;;24.60;;
46318;SDS011;32042;50.916;2.926;2023-04-22T11:14:48;33.43;;;28.00;;
46318;SDS011;32042;50.916;2.926;2023-04-22T11:17:14;26.37;;;23.57;;
46318;SDS011;32042;50.916;2.926;2023-04-22T11:19:40;29.10;;;25.03;;
46318;SDS011;32042;50.916;2.926;2023-04-22T11:22:06;42.03;;;31.90;;
46318;SDS011;32042;50.916;2.926;2023-04-22T11:24:32;27.03;;;22.27;;
46318;SDS011;32042;50.916;2.926;2023-04-22T11:26:59;25.10;;;21.90;;
46318;SDS011;32042;50.916;2.926;2023-04-22T11:29:25;25.30;;;22.60;;
46318;SDS011;32042;50.916;2.926;2023-04-22T11:31:51;20.93;;;18.77;;
46318;SDS011;32042;50.916;2.926;2023-04-22T11:34:17;23.30;;;20.83;;
46318;SDS011;32042;50.916;2.926;2023-04-22T11:36:44;26.20;;;19.67;;
46318;SDS011;32042;50.916;2.926;2023-04-22T11:39:10;22.10;;;19.80;;
46318;SDS011;32042;50.916;2.926;2023-04-22T11:41:42;20.43;;;18.33;;
46318;SDS011;32042;50.916;2.926;2023-04-22T11:44:08;25.00;;;19.57;;
46318;SDS011;32042;50.916;2.926;2023-04-22T11:46:34;21.07;;;18.90;;
46318;SDS011;32042;50.916;2.926;2023-04-22T11:49:13;22.27;;;19.83;;
46318;SDS011;32042;50.916;2.926;2023-04-22T11:51:54;23.50;;;18.83;;
46318;SDS011;32042;50.916;2.926;2023-04-22T11:54:30;21.10;;;18.93;;
46318;SDS011;32042;50.916;2.926;2023-04-22T11:56:59;20.80;;;18.67;;
46318;SDS011;32042;50.916;2.926;2023-04-22T11:59:26;21.43;;;19.20;;
46318;SDS011;32042;50.916;2.926;2023-04-22T12:01:52;21.00;;;18.90;;
46318;SDS011;32042;50.916;2.926;2023-04-22T12:04:22;21.20;;;19.00;;
46318;SDS011;32042;50.916;2.926;2023-04-22T12:06:48;21.47;;;17.87;;
46318;SDS011;32042;50.916;2.926;2023-04-22T12:09:16;18.23;;;16.17;;
46318;SDS011;32042;50.916;2.926;2023-04-22T12:11:45;17.57;;;15.87;;
46318;SDS011;32042;50.916;2.926;2023-04-22T12:14:11;18.93;;;17.13;;
46318;SDS011;32042;50.916;2.926;2023-04-22T12:16:40;17.43;;;15.17;;
46318;SDS011;32042;50.916;2.926;2023-04-22T12:19:07;16.93;;;15.23;;
46318;SDS011;32042;50.916;2.926;2023-04-22T12:21:33;18.27;;;15.87;;
46318;SDS011;32042;50.916;2.926;2023-04-22T12:24:01;17.23;;;15.63;;
46318;SDS011;32042;50.916;2.926;2023-04-22T12:26:30;16.10;;;14.50;;
46318;SDS011;32042;50.916;2.926;2023-04-22T12:28:57;15.60;;;14.10;;
46318;SDS011;32042;50.916;2.926;2023-04-22T12:31:24;16.07;;;14.37;;
46318;SDS011;32042;50.916;2.926;2023-04-22T12:33:50;15.10;;;13.80;;
46318;SDS011;32042;50.916;2.926;2023-04-22T12:36:17;16.13;;;14.73;;
46318;SDS011;32042;50.916;2.926;2023-04-22T12:38:47;15.20;;;13.80;;
46318;SDS011;32042;50.916;2.926;2023-04-22T12:41:13;15.63;;;14.10;;
46318;SDS011;32042;50.916;2.926;2023-04-22T12:43:42;16.87;;;15.17;;
46318;SDS011;32042;50.916;2.926;2023-04-22T12:46:09;16.47;;;14.83;;
46318;SDS011;32042;50.916;2.926;2023-04-22T12:48:35;18.37;;;15.93;;
46318;SDS011;32042;50.916;2.926;2023-04-22T12:51:01;16.83;;;15.27;;
46318;SDS011;32042;50.916;2.926;2023-04-22T12:53:27;16.73;;;15.07;;
46318;SDS011;32042;50.916;2.926;2023-04-22T12:55:54;19.53;;;17.20;;
46318;SDS011;32042;50.916;2.926;2023-04-22T12:58:20;17.30;;;15.77;;
46318;SDS011;32042;50.916;2.926;2023-04-22T13:00:46;16.40;;;14.67;;
46318;SDS011;32042;50.916;2.926;2023-04-22T13:03:12;16.10;;;14.60;;
46318;SDS011;32042;50.916;2.926;2023-04-22T13:05:38;17.23;;;15.43;;
46318;SDS011;32042;50.916;2.926;2023-04-22T13:08:04;16.30;;;14.80;;
46318;SDS011;32042;50.916;2.926;2023-04-22T13:10:30;16.30;;;14.70;;
46318;SDS011;32042;50.916;2.926;2023-04-22T13:12:56;16.20;;;14.73;;
46318;SDS011;32042;50.916;2.926;2023-04-22T13:15:23;16.17;;;14.43;;
46318;SDS011;32042;50.916;2.926;2023-04-22T13:17:50;15.97;;;14.57;;
46318;SDS011;32042;50.916;2.926;2023-04-22T13:20:16;15.53;;;14.13;;
46318;SDS011;32042;50.916;2.926;2023-04-22T13:22:43;14.60;;;13.40;;
46318;SDS011;32042;50.916;2.926;2023-04-22T13:25:11;15.70;;;14.33;;
46318;SDS011;32042;50.916;2.926;2023-04-22T13:27:37;16.50;;;14.90;;
46318;SDS011;32042;50.916;2.926;2023-04-22T13:30:03;14.30;;;13.03;;
46318;SDS011;32042;50.916;2.926;2023-04-22T13:32:30;15.80;;;14.13;;
46318;SDS011;32042;50.916;2.926;2023-04-22T13:34:56;16.43;;;14.87;;
46318;SDS011;32042;50.916;2.926;2023-04-22T13:37:22;16.60;;;15.03;;
46318;SDS011;32042;50.916;2.926;2023-04-22T13:39:48;16.27;;;14.67;;
46318;SDS011;32042;50.916;2.926;2023-04-22T13:42:14;14.93;;;13.47;;
46318;SDS011;32042;50.916;2.926;2023-04-22T13:44:41;15.37;;;13.77;;
46318;SDS011;32042;50.916;2.926;2023-04-22T13:47:07;14.43;;;13.03;;
46318;SDS011;32042;50.916;2.926;2023-04-22T13:49:33;15.03;;;13.73;;
46318;SDS011;32042;50.916;2.926;2023-04-22T13:52:00;15.27;;;13.70;;
46318;SDS011;32042;50.916;2.926;2023-04-22T13:54:26;15.53;;;13.93;;
46318;SDS011;32042;50.916;2.926;2023-04-22T13:56:52;16.40;;;14.90;;
46318;SDS011;32042;50.916;2.926;2023-04-22T13:59:18;16.27;;;14.87;;
46318;SDS011;32042;50.916;2.926;2023-04-22T14:01:45;15.57;;;14.07;;
46318;SDS011;32042;50.916;2.926;2023-04-22T14:04:11;15.57;;;14.27;;
46318;SDS011;32042;50.916;2.926;2023-04-22T14:06:37;19.33;;;17.33;;
46318;SDS011;32042;50.916;2.926;2023-04-22T14:09:03;20.23;;;18.33;;
46318;SDS011;32042;50.916;2.926;2023-04-22T14:11:29;18.00;;;16.20;;
46318;SDS011;32042;50.916;2.926;2023-04-22T14:13:56;17.50;;;15.90;;
46318;SDS011;32042;50.916;2.926;2023-04-22T14:16:22;19.27;;;17.30;;
46318;SDS011;32042;50.916;2.926;2023-04-22T14:18:48;18.87;;;17.03;;
46318;SDS011;32042;50.916;2.926;2023-04-22T14:21:14;21.73;;;19.57;;
46318;SDS011;32042;50.916;2.926;2023-04-22T14:23:40;20.93;;;19.03;;
46318;SDS011;32042;50.916;2.926;2023-04-22T14:26:08;21.07;;;19.00;;
46318;SDS011;32042;50.916;2.926;2023-04-22T14:28:35;21.00;;;18.90;;
46318;SDS011;32042;50.916;2.926;2023-04-22T14:31:01;19.07;;;17.07;;
46318;SDS011;32042;50.916;2.926;2023-04-22T14:33:27;19.97;;;18.17;;
46318;SDS011;32042;50.916;2.926;2023-04-22T14:35:53;20.00;;;18.20;;